createdAt,value
2022-10-18T00:00:01.035Z,23.6
2022-10-18T00:05:01.509Z,23.6
2022-10-18T00:10:01.225Z,23.6
2022-10-18T00:15:01.496Z,23.6
2022-10-18T00:20:01.004Z,23.5
2022-10-18T00:25:00.117Z,23.6
2022-10-18T00:30:00.163Z,23.5
2022-10-18T00:35:00.123Z,23.5
2022-10-18T00:40:01.218Z,23.5
2022-10-18T00:45:00.999Z,23.5
2022-10-18T00:50:01.305Z,23.5
2022-10-18T00:55:00.116Z,23.5
2022-10-18T01:00:01.028Z,23.5
2022-10-18T01:05:00.098Z,23.5
2022-10-18T01:10:01.239Z,23.5
2022-10-18T01:15:00.123Z,23.4
2022-10-18T01:20:00.106Z,23.4
2022-10-18T01:25:00.190Z,23.5
2022-10-18T01:30:01.296Z,23.4
2022-10-18T01:35:01.236Z,23.4
2022-10-18T01:40:00.120Z,23.4
2022-10-18T01:45:01.256Z,23.3
2022-10-18T01:50:01.256Z,23.3
2022-10-18T01:55:00.129Z,23.4
2022-10-18T02:00:00.148Z,23.3
2022-10-18T02:05:00.113Z,23.3
2022-10-18T02:10:01.252Z,23.3
2022-10-18T02:15:00.129Z,23.3
2022-10-18T02:20:00.232Z,23.3
2022-10-18T02:25:00.125Z,23.3
2022-10-18T02:30:01.072Z,23.3
2022-10-18T02:35:00.126Z,23.3
2022-10-18T02:40:00.106Z,23.3
2022-10-18T02:45:01.679Z,23.3
2022-10-18T02:50:01.464Z,23.3
2022-10-18T02:55:00.117Z,23.2
2022-10-18T03:00:00.136Z,23.2
2022-10-18T03:05:00.135Z,23.2
2022-10-18T03:10:01.033Z,23.3
2022-10-18T03:15:00.132Z,23.3
2022-10-18T03:20:02.952Z,23.3
2022-10-18T03:25:00.102Z,23.2
2022-10-18T03:30:00.140Z,23.2
2022-10-18T03:35:00.148Z,23.2
2022-10-18T03:40:00.988Z,23.2
2022-10-18T03:45:01.939Z,23.2
2022-10-18T03:50:00.155Z,23.2
2022-10-18T03:55:00.134Z,23.2
2022-10-18T04:00:00.129Z,23.1
2022-10-18T04:05:00.094Z,23.2
2022-10-18T04:10:02.688Z,23.2
2022-10-18T04:15:00.107Z,23.2
2022-10-18T04:20:01.333Z,23.2
2022-10-18T04:25:01.205Z,23.1
2022-10-18T04:30:01.027Z,23.1
2022-10-18T04:35:00.130Z,23.1
2022-10-18T04:40:01.470Z,23.1
2022-10-18T04:45:00.119Z,23.1
2022-10-18T04:50:00.144Z,23.1
2022-10-18T04:55:00.119Z,23.1
2022-10-18T05:00:00.792Z,23.1
2022-10-18T05:05:00.089Z,23.1
2022-10-18T05:10:00.992Z,23.0
2022-10-18T05:15:01.485Z,23.1
2022-10-18T05:20:01.022Z,23.0
2022-10-18T05:25:01.170Z,23.0
2022-10-18T05:30:02.811Z,23.0
2022-10-18T05:35:00.113Z,23.0
2022-10-18T05:40:01.238Z,23.0
2022-10-18T05:45:00.130Z,23.0
2022-10-18T05:50:00.132Z,23.0
2022-10-18T05:55:00.143Z,23.0
2022-10-18T06:00:00.134Z,23.0
2022-10-18T06:05:00.972Z,23.0
2022-10-18T06:10:00.137Z,23.0
2022-10-18T06:15:01.077Z,23.0
2022-10-18T06:20:00.120Z,23.0
2022-10-18T06:25:00.125Z,23.0
2022-10-18T06:30:01.037Z,23.0
2022-10-18T06:35:00.127Z,23.0
2022-10-18T06:40:01.445Z,23.0
2022-10-18T06:45:00.125Z,23.0
2022-10-18T06:50:01.046Z,23.0
2022-10-18T06:55:00.114Z,23.0
2022-10-18T07:00:01.001Z,23.0
2022-10-18T07:05:00.114Z,23.0
2022-10-18T07:10:01.209Z,23.0
2022-10-18T07:15:03.471Z,23.0
2022-10-18T07:20:00.974Z,23.0
2022-10-18T07:25:00.154Z,23.0
2022-10-18T07:30:00.977Z,23.0
2022-10-18T07:35:01.056Z,23.0
2022-10-18T07:40:00.984Z,23.0
2022-10-18T07:45:01.163Z,23.0
2022-10-18T07:50:01.044Z,23.0
2022-10-18T07:55:00.149Z,23.0
2022-10-18T08:00:01.255Z,23.0
2022-10-18T08:05:00.099Z,23.0
2022-10-18T08:10:00.960Z,23.0
2022-10-18T08:15:00.113Z,23.0
2022-10-18T08:20:11.275Z,23.0
2022-10-18T08:25:00.935Z,22.9
2022-10-18T08:30:02.319Z,23.0
2022-10-18T08:35:00.737Z,22.9
2022-10-18T08:40:00.869Z,22.9
2022-10-18T08:45:04.948Z,22.9
2022-10-18T08:50:01.094Z,22.9
2022-10-18T08:55:00.100Z,22.9
2022-10-18T09:00:01.045Z,22.9
2022-10-18T09:05:00.117Z,22.9
2022-10-18T09:10:01.248Z,22.9
2022-10-18T09:15:01.210Z,22.9
2022-10-18T09:25:00.100Z,22.9
2022-10-18T09:30:00.952Z,22.9
2022-10-18T09:35:01.184Z,22.8
2022-10-18T09:40:01.251Z,22.9
2022-10-18T09:45:00.968Z,22.8
2022-10-18T09:50:00.171Z,22.9
2022-10-18T09:55:01.252Z,22.9
2022-10-18T10:00:01.012Z,22.9
2022-10-18T10:05:01.258Z,22.8
2022-10-18T10:10:00.152Z,22.8
2022-10-18T10:15:01.299Z,22.8
2022-10-18T10:20:00.971Z,22.8
2022-10-18T10:25:00.980Z,22.8
2022-10-18T10:30:02.895Z,22.8
2022-10-18T10:35:00.088Z,22.8
2022-10-18T10:40:17.209Z,22.8
2022-10-18T10:45:01.003Z,22.8
2022-10-18T10:50:01.017Z,22.8
2022-10-18T10:55:06.021Z,22.8
2022-10-18T11:00:01.975Z,22.8
2022-10-18T11:05:01.292Z,22.8
2022-10-18T11:10:01.254Z,22.8
2022-10-18T11:15:01.301Z,22.8
2022-10-18T11:20:01.039Z,22.7
2022-10-18T11:25:00.995Z,22.8
2022-10-18T11:30:01.507Z,22.7
2022-10-18T11:35:02.438Z,22.8
2022-10-18T11:40:01.244Z,22.8
2022-10-18T11:45:01.068Z,22.7
2022-10-18T11:50:01.094Z,22.8
2022-10-18T11:55:01.004Z,22.7
2022-10-18T12:00:01.495Z,22.7
2022-10-18T12:10:00.179Z,22.7
2022-10-18T12:15:00.101Z,22.8
2022-10-18T12:20:01.190Z,22.8
2022-10-18T12:25:00.931Z,22.8
2022-10-18T12:30:01.051Z,22.7
2022-10-18T12:35:00.957Z,22.7
2022-10-18T12:40:18.713Z,22.7
2022-10-18T12:45:00.113Z,22.7
2022-10-18T12:50:01.030Z,22.7
2022-10-18T12:55:00.093Z,22.7
2022-10-18T13:00:01.026Z,22.7
2022-10-18T13:05:01.787Z,22.7
2022-10-18T13:10:00.977Z,22.7
2022-10-18T13:15:07.227Z,22.7
2022-10-18T13:20:20.809Z,22.7
2022-10-18T13:25:01.023Z,22.7
2022-10-18T13:30:01.200Z,22.7
2022-10-18T13:35:01.005Z,22.7
2022-10-18T13:40:01.235Z,22.7
2022-10-18T13:45:01.468Z,22.7
2022-10-18T13:50:01.022Z,22.7
2022-10-18T13:55:00.960Z,22.7
2022-10-18T14:00:01.496Z,22.7
2022-10-18T14:05:16.824Z,22.7
2022-10-18T14:10:03.455Z,22.8
2022-10-18T14:15:00.964Z,22.8
2022-10-18T14:20:01.025Z,22.8
2022-10-18T14:25:00.981Z,22.8
2022-10-18T14:30:00.156Z,22.8
2022-10-18T14:35:27.530Z,22.8
2022-10-18T14:40:00.142Z,22.8
2022-10-18T14:45:00.235Z,22.8
2022-10-18T14:50:01.064Z,22.8
2022-10-18T14:55:01.431Z,22.8
2022-10-18T15:00:00.154Z,22.8
2022-10-18T15:05:03.487Z,22.9
2022-10-18T15:10:00.158Z,22.9
2022-10-18T15:15:00.095Z,22.9
2022-10-18T15:20:01.761Z,22.9
2022-10-18T15:25:00.979Z,23.0
2022-10-18T15:30:02.065Z,23.0
2022-10-18T15:35:00.111Z,23.0
2022-10-18T15:40:01.066Z,23.0
2022-10-18T15:45:01.440Z,22.9
2022-10-18T15:50:01.059Z,22.9
2022-10-18T15:55:00.998Z,23.0
2022-10-18T16:00:00.985Z,22.9
2022-10-18T16:05:01.599Z,22.9
2022-10-18T16:10:00.149Z,22.9
2022-10-18T16:15:00.994Z,22.9
2022-10-18T16:20:01.237Z,22.8
2022-10-18T16:25:00.146Z,22.8
2022-10-18T16:30:00.132Z,22.8
2022-10-18T16:35:00.088Z,22.8
2022-10-18T16:40:01.965Z,22.8
2022-10-18T16:45:00.137Z,22.8
2022-10-18T16:50:04.046Z,22.8
2022-10-18T16:55:00.113Z,22.7
2022-10-18T17:00:01.589Z,22.7
2022-10-18T17:05:01.319Z,22.7
2022-10-18T17:10:00.161Z,22.7
2022-10-18T17:15:00.117Z,22.7
2022-10-18T17:20:01.003Z,22.7
2022-10-18T17:25:01.345Z,22.7
2022-10-18T17:30:01.283Z,22.6
2022-10-18T17:35:00.999Z,22.6
2022-10-18T17:40:00.125Z,22.6
2022-10-18T17:45:00.114Z,22.6
2022-10-18T17:50:01.036Z,22.6
2022-10-18T17:55:01.215Z,22.6
2022-10-18T18:00:01.534Z,22.6
2022-10-18T18:05:01.046Z,22.7
2022-10-18T18:10:02.059Z,22.7
2022-10-18T18:15:00.115Z,22.6
2022-10-18T18:20:01.512Z,22.6
2022-10-18T18:25:00.127Z,22.6
2022-10-18T18:30:01.254Z,22.6
2022-10-18T18:35:01.957Z,22.6
2022-10-18T18:40:01.571Z,22.6
2022-10-18T18:45:01.623Z,22.6
2022-10-18T18:50:01.037Z,22.6
2022-10-18T18:55:00.977Z,22.6
2022-10-18T19:00:01.251Z,22.5
2022-10-18T19:05:02.779Z,22.5
2022-10-18T19:10:01.065Z,22.5
2022-10-18T19:15:00.143Z,22.5
2022-10-18T19:20:00.098Z,22.5
2022-10-18T19:25:01.311Z,22.6
2022-10-18T19:30:01.077Z,22.6
2022-10-18T19:35:01.233Z,22.6
2022-10-18T19:40:00.967Z,22.7
2022-10-18T19:45:00.131Z,22.6
2022-10-18T19:50:00.145Z,22.7
2022-10-18T19:55:00.984Z,22.8
2022-10-18T20:00:01.234Z,22.8
2022-10-18T20:05:01.259Z,22.8
2022-10-18T20:10:00.136Z,22.8
2022-10-18T20:15:00.965Z,22.8
2022-10-18T20:20:01.263Z,22.8
2022-10-18T20:25:01.201Z,22.8
2022-10-18T20:30:00.986Z,22.8
2022-10-18T20:35:00.098Z,22.8
2022-10-18T20:40:01.006Z,22.8
2022-10-18T20:45:01.150Z,22.8
2022-10-18T20:50:01.227Z,22.8
2022-10-18T20:55:00.088Z,22.8
2022-10-18T21:00:01.067Z,22.8
2022-10-18T21:05:00.118Z,22.8
2022-10-18T21:10:01.218Z,22.8
2022-10-18T21:15:01.417Z,22.8
2022-10-18T21:20:00.128Z,22.7
2022-10-18T21:25:01.249Z,22.7
2022-10-18T21:30:01.074Z,22.7
2022-10-18T21:35:00.088Z,22.7
2022-10-18T21:40:01.027Z,22.7
2022-10-18T21:45:00.125Z,22.7
2022-10-18T21:50:00.987Z,22.7
2022-10-18T21:55:01.027Z,22.8
2022-10-18T22:00:00.995Z,22.8
2022-10-18T22:05:01.715Z,22.7
2022-10-18T22:10:01.232Z,22.7
2022-10-18T22:15:00.969Z,22.7
2022-10-18T22:20:00.112Z,22.7
2022-10-18T22:25:01.264Z,22.7
2022-10-18T22:30:01.678Z,22.7
2022-10-18T22:35:00.087Z,22.7
2022-10-18T22:40:01.075Z,22.7
2022-10-18T22:45:01.298Z,22.7
2022-10-18T22:50:01.018Z,22.7
2022-10-18T22:55:00.138Z,22.7
2022-10-18T23:00:01.492Z,22.7
2022-10-18T23:05:00.115Z,22.7
2022-10-18T23:10:01.967Z,22.7
2022-10-18T23:15:00.103Z,22.7
2022-10-18T23:20:01.234Z,22.7
2022-10-18T23:25:01.009Z,22.8
2022-10-18T23:30:00.953Z,22.8
2022-10-18T23:35:01.227Z,22.8
2022-10-18T23:40:01.280Z,22.7
2022-10-18T23:45:01.266Z,22.7
2022-10-18T23:50:01.254Z,22.7
2022-10-18T23:55:01.012Z,22.8
